sensor_id;sensor_type;location;lat;lon;timestamp;P1;durP1;ratioP1;P2;durP2;ratioP2
20078;SDS011;10199;48.850;8.924;2024-03-23T00:53:49;2.73;;;2.53;;
20078;SDS011;10199;48.850;8.924;2024-03-23T00:56:16;3.90;;;2.80;;
20078;SDS011;10199;48.850;8.924;2024-03-23T00:58:42;6.27;;;2.97;;
20078;SDS011;10199;48.850;8.924;2024-03-23T01:01:09;3.53;;;3.17;;
20078;SDS011;10199;48.850;8.924;2024-03-23T01:03:35;4.63;;;2.87;;
20078;SDS011;10199;48.850;8.924;2024-03-23T01:06:03;4.93;;;3.50;;
20078;SDS011;10199;48.850;8.924;2024-03-23T01:08:29;3.30;;;3.00;;
20078;SDS011;10199;48.850;8.924;2024-03-23T01:10:58;5.17;;;3.30;;
20078;SDS011;10199;48.850;8.924;2024-03-23T01:13:26;4.40;;;2.70;;
20078;SDS011;10199;48.850;8.924;2024-03-23T01:15:54;5.10;;;3.00;;
20078;SDS011;10199;48.850;8.924;2024-03-23T01:18:21;3.97;;;2.70;;
20078;SDS011;10199;48.850;8.924;2024-03-23T01:20:49;3.80;;;2.90;;
20078;SDS011;10199;48.850;8.924;2024-03-23T01:23:16;5.67;;;2.80;;
20078;SDS011;10199;48.850;8.924;2024-03-23T01:25:43;6.17;;;2.60;;
20078;SDS011;10199;48.850;8.924;2024-03-23T01:28:10;2.90;;;2.60;;
20078;SDS011;10199;48.850;8.924;2024-03-23T01:30:37;6.10;;;2.57;;
20078;SDS011;10199;48.850;8.924;2024-03-23T01:33:04;5.37;;;2.70;;
20078;SDS011;10199;48.850;8.924;2024-03-23T01:35:31;3.13;;;2.80;;
20078;SDS011;10199;48.850;8.924;2024-03-23T01:37:57;3.40;;;2.50;;
20078;SDS011;10199;48.850;8.924;2024-03-23T01:40:24;5.00;;;2.63;;
20078;SDS011;10199;48.850;8.924;2024-03-23T01:42:56;2.83;;;2.57;;
20078;SDS011;10199;48.850;8.924;2024-03-23T01:45:24;2.90;;;2.23;;
20078;SDS011;10199;48.850;8.924;2024-03-23T01:47:51;3.30;;;2.63;;
20078;SDS011;10199;48.850;8.924;2024-03-23T01:50:19;3.30;;;2.20;;
20078;SDS011;10199;48.850;8.924;2024-03-23T01:52:46;2.67;;;2.40;;
20078;SDS011;10199;48.850;8.924;2024-03-23T01:55:13;3.83;;;2.23;;
20078;SDS011;10199;48.850;8.924;2024-03-23T01:57:39;4.10;;;2.60;;
20078;SDS011;10199;48.850;8.924;2024-03-23T02:00:07;3.07;;;2.43;;
20078;SDS011;10199;48.850;8.924;2024-03-23T02:02:42;2.20;;;2.00;;
20078;SDS011;10199;48.850;8.924;2024-03-23T02:05:10;3.07;;;2.40;;
20078;SDS011;10199;48.850;8.924;2024-03-23T02:07:37;2.60;;;2.10;;
20078;SDS011;10199;48.850;8.924;2024-03-23T02:10:06;2.60;;;2.40;;
20078;SDS011;10199;48.850;8.924;2024-03-23T02:12:32;2.97;;;2.20;;
20078;SDS011;10199;48.850;8.924;2024-03-23T02:14:59;3.27;;;2.50;;
20078;SDS011;10199;48.850;8.924;2024-03-23T02:17:25;2.20;;;2.00;;
20078;SDS011;10199;48.850;8.924;2024-03-23T02:19:54;2.30;;;2.03;;
20078;SDS011;10199;48.850;8.924;2024-03-23T02:22:20;2.40;;;2.20;;
20078;SDS011;10199;48.850;8.924;2024-03-23T02:24:48;3.17;;;2.30;;
20078;SDS011;10199;48.850;8.924;2024-03-23T02:27:14;2.03;;;1.83;;
20078;SDS011;10199;48.850;8.924;2024-03-23T02:29:41;3.33;;;2.10;;
20078;SDS011;10199;48.850;8.924;2024-03-23T02:32:07;4.47;;;2.20;;
20078;SDS011;10199;48.850;8.924;2024-03-23T02:34:35;5.03;;;2.20;;
20078;SDS011;10199;48.850;8.924;2024-03-23T02:37:01;3.50;;;2.30;;
20078;SDS011;10199;48.850;8.924;2024-03-23T02:39:29;2.70;;;2.17;;
20078;SDS011;10199;48.850;8.924;2024-03-23T02:41:56;4.00;;;2.23;;
20078;SDS011;10199;48.850;8.924;2024-03-23T02:44:23;2.50;;;2.13;;
20078;SDS011;10199;48.850;8.924;2024-03-23T02:46:50;2.20;;;2.00;;
20078;SDS011;10199;48.850;8.924;2024-03-23T02:49:17;2.27;;;2.07;;
20078;SDS011;10199;48.850;8.924;2024-03-23T02:51:43;2.80;;;2.13;;
20078;SDS011;10199;48.850;8.924;2024-03-23T02:54:14;2.30;;;1.90;;
20078;SDS011;10199;48.850;8.924;2024-03-23T02:56:40;2.70;;;2.00;;
20078;SDS011;10199;48.850;8.924;2024-03-23T02:59:09;2.13;;;1.80;;
20078;SDS011;10199;48.850;8.924;2024-03-23T03:01:35;4.00;;;2.23;;
20078;SDS011;10199;48.850;8.924;2024-03-23T03:04:02;2.20;;;1.93;;
20078;SDS011;10199;48.850;8.924;2024-03-23T03:06:31;2.60;;;2.13;;
20078;SDS011;10199;48.850;8.924;2024-03-23T03:08:58;2.50;;;2.30;;
20078;SDS011;10199;48.850;8.924;2024-03-23T03:11:24;2.20;;;2.00;;
20078;SDS011;10199;48.850;8.924;2024-03-23T03:13:52;3.20;;;2.20;;
20078;SDS011;10199;48.850;8.924;2024-03-23T03:16:19;3.00;;;2.20;;
20078;SDS011;10199;48.850;8.924;2024-03-23T03:18:46;5.83;;;2.63;;
20078;SDS011;10199;48.850;8.924;2024-03-23T03:21:13;2.40;;;2.20;;
20078;SDS011;10199;48.850;8.924;2024-03-23T03:23:40;4.23;;;2.27;;
20078;SDS011;10199;48.850;8.924;2024-03-23T03:26:06;2.33;;;2.13;;
20078;SDS011;10199;48.850;8.924;2024-03-23T03:28:33;3.27;;;2.27;;
20078;SDS011;10199;48.850;8.924;2024-03-23T03:31:00;2.30;;;2.10;;
20078;SDS011;10199;48.850;8.924;2024-03-23T03:33:29;4.33;;;2.40;;
20078;SDS011;10199;48.850;8.924;2024-03-23T03:35:55;4.40;;;2.50;;
20078;SDS011;10199;48.850;8.924;2024-03-23T03:38:22;3.03;;;2.47;;
20078;SDS011;10199;48.850;8.924;2024-03-23T03:40:48;3.83;;;2.10;;
20078;SDS011;10199;48.850;8.924;2024-03-23T03:43:15;2.93;;;2.40;;
20078;SDS011;10199;48.850;8.924;2024-03-23T03:45:41;3.40;;;2.47;;
20078;SDS011;10199;48.850;8.924;2024-03-23T03:48:08;3.37;;;2.50;;
20078;SDS011;10199;48.850;8.924;2024-03-23T03:50:36;4.33;;;2.53;;
20078;SDS011;10199;48.850;8.924;2024-03-23T03:53:03;3.20;;;2.60;;
20078;SDS011;10199;48.850;8.924;2024-03-23T03:55:29;2.60;;;2.30;;
20078;SDS011;10199;48.850;8.924;2024-03-23T03:57:57;2.33;;;2.13;;
20078;SDS011;10199;48.850;8.924;2024-03-23T04:00:23;2.90;;;2.17;;
20078;SDS011;10199;48.850;8.924;2024-03-23T04:02:50;3.13;;;2.10;;
20078;SDS011;10199;48.850;8.924;2024-03-23T04:05:16;3.63;;;2.20;;
20078;SDS011;10199;48.850;8.924;2024-03-23T04:07:46;4.27;;;2.87;;
20078;SDS011;10199;48.850;8.924;2024-03-23T04:10:12;3.33;;;2.47;;
20078;SDS011;10199;48.850;8.924;2024-03-23T04:12:39;6.53;;;3.73;;
20078;SDS011;10199;48.850;8.924;2024-03-23T04:15:06;9.97;;;4.10;;
20078;SDS011;10199;48.850;8.924;2024-03-23T04:17:33;6.83;;;4.67;;
20078;SDS011;10199;48.850;8.924;2024-03-23T04:20:00;7.47;;;6.07;;
20078;SDS011;10199;48.850;8.924;2024-03-23T04:22:28;9.47;;;7.07;;
20078;SDS011;10199;48.850;8.924;2024-03-23T04:24:56;8.33;;;7.53;;
20078;SDS011;10199;48.850;8.924;2024-03-23T04:27:23;11.60;;;8.37;;
20078;SDS011;10199;48.850;8.924;2024-03-23T04:29:49;10.60;;;8.80;;
20078;SDS011;10199;48.850;8.924;2024-03-23T04:32:17;11.20;;;10.00;;
20078;SDS011;10199;48.850;8.924;2024-03-23T04:34:43;13.03;;;10.57;;
20078;SDS011;10199;48.850;8.924;2024-03-23T04:37:11;12.33;;;10.70;;
20078;SDS011;10199;48.850;8.924;2024-03-23T04:39:38;12.00;;;10.73;;
20078;SDS011;10199;48.850;8.924;2024-03-23T04:42:07;13.70;;;10.67;;
20078;SDS011;10199;48.850;8.924;2024-03-23T04:44:34;13.53;;;10.40;;
20078;SDS011;10199;48.850;8.924;2024-03-23T04:47:00;13.10;;;10.90;;
20078;SDS011;10199;48.850;8.924;2024-03-23T04:49:27;13.60;;;11.47;;
20078;SDS011;10199;48.850;8.924;2024-03-23T04:51:55;16.10;;;11.97;;
20078;SDS011;10199;48.850;8.924;2024-03-23T04:54:22;14.87;;;11.87;;
20078;SDS011;10199;48.850;8.924;2024-03-23T04:56:49;14.40;;;11.47;;
20078;SDS011;10199;48.850;8.924;2024-03-23T04:59:18;17.00;;;12.90;;
20078;SDS011;10199;48.850;8.924;2024-03-23T05:01:44;15.80;;;12.00;;
20078;SDS011;10199;48.850;8.924;2024-03-23T05:04:11;14.03;;;12.53;;
20078;SDS011;10199;48.850;8.924;2024-03-23T05:06:37;17.23;;;14.23;;
20078;SDS011;10199;48.850;8.924;2024-03-23T05:09:04;15.10;;;12.57;;
20078;SDS011;10199;48.850;8.924;2024-03-23T05:11:31;17.27;;;13.70;;
20078;SDS011;10199;48.850;8.924;2024-03-23T05:13:59;16.23;;;12.70;;
20078;SDS011;10199;48.850;8.924;2024-03-23T05:16:26;11.87;;;9.10;;
20078;SDS011;10199;48.850;8.924;2024-03-23T05:18:54;15.63;;;11.43;;
20078;SDS011;10199;48.850;8.924;2024-03-23T05:21:20;12.37;;;8.93;;
20078;SDS011;10199;48.850;8.924;2024-03-23T05:23:47;11.30;;;8.60;;
20078;SDS011;10199;48.850;8.924;2024-03-23T05:26:13;11.67;;;9.27;;
20078;SDS011;10199;48.850;8.924;2024-03-23T05:28:40;13.90;;;9.83;;
20078;SDS011;10199;48.850;8.924;2024-03-23T05:31:06;12.13;;;9.60;;
20078;SDS011;10199;48.850;8.924;2024-03-23T05:33:36;12.17;;;10.07;;
20078;SDS011;10199;48.850;8.924;2024-03-23T05:36:04;11.53;;;9.83;;
20078;SDS011;10199;48.850;8.924;2024-03-23T05:38:34;11.53;;;8.40;;
20078;SDS011;10199;48.850;8.924;2024-03-23T05:41:00;9.53;;;7.87;;
20078;SDS011;10199;48.850;8.924;2024-03-23T05:43:28;10.70;;;8.00;;
20078;SDS011;10199;48.850;8.924;2024-03-23T05:45:54;10.60;;;7.17;;
20078;SDS011;10199;48.850;8.924;2024-03-23T05:48:24;8.57;;;6.10;;
20078;SDS011;10199;48.850;8.924;2024-03-23T05:50:53;7.27;;;6.10;;
20078;SDS011;10199;48.850;8.924;2024-03-23T05:53:20;7.73;;;4.70;;
20078;SDS011;10199;48.850;8.924;2024-03-23T05:55:46;6.30;;;4.97;;
20078;SDS011;10199;48.850;8.924;2024-03-23T05:58:15;7.03;;;5.13;;
20078;SDS011;10199;48.850;8.924;2024-03-23T06:00:41;7.87;;;4.90;;
20078;SDS011;10199;48.850;8.924;2024-03-23T06:03:09;4.93;;;4.23;;
20078;SDS011;10199;48.850;8.924;2024-03-23T06:05:35;5.83;;;4.07;;
20078;SDS011;10199;48.850;8.924;2024-03-23T06:08:04;5.23;;;3.07;;
20078;SDS011;10199;48.850;8.924;2024-03-23T06:10:31;4.80;;;3.50;;
20078;SDS011;10199;48.850;8.924;2024-03-23T06:12:59;3.93;;;3.30;;
20078;SDS011;10199;48.850;8.924;2024-03-23T06:15:28;4.10;;;3.37;;
20078;SDS011;10199;48.850;8.924;2024-03-23T06:17:57;3.20;;;2.90;;
20078;SDS011;10199;48.850;8.924;2024-03-23T06:20:23;3.90;;;3.10;;
20078;SDS011;10199;48.850;8.924;2024-03-23T06:22:51;2.87;;;2.40;;
20078;SDS011;10199;48.850;8.924;2024-03-23T06:25:18;2.40;;;2.17;;
20078;SDS011;10199;48.850;8.924;2024-03-23T06:27:45;1.87;;;1.60;;
20078;SDS011;10199;48.850;8.924;2024-03-23T06:30:12;1.50;;;1.20;;
20078;SDS011;10199;48.850;8.924;2024-03-23T06:32:40;1.27;;;1.17;;
20078;SDS011;10199;48.850;8.924;2024-03-23T06:35:06;1.77;;;1.17;;
20078;SDS011;10199;48.850;8.924;2024-03-23T06:37:35;1.33;;;1.20;;
20078;SDS011;10199;48.850;8.924;2024-03-23T06:40:02;1.50;;;1.20;;
20078;SDS011;10199;48.850;8.924;2024-03-23T06:42:31;1.13;;;0.80;;
20078;SDS011;10199;48.850;8.924;2024-03-23T06:44:58;0.83;;;0.83;;
20078;SDS011;10199;48.850;8.924;2024-03-23T06:47:25;1.23;;;1.00;;
20078;SDS011;10199;48.850;8.924;2024-03-23T06:49:51;1.07;;;0.97;;
20078;SDS011;10199;48.850;8.924;2024-03-23T06:52:18;1.10;;;0.73;;
20078;SDS011;10199;48.850;8.924;2024-03-23T06:54:47;2.13;;;1.00;;
20078;SDS011;10199;48.850;8.924;2024-03-23T06:57:14;0.60;;;0.60;;
20078;SDS011;10199;48.850;8.924;2024-03-23T06:59:42;0.57;;;0.57;;
20078;SDS011;10199;48.850;8.924;2024-03-23T07:02:09;0.97;;;0.70;;
20078;SDS011;10199;48.850;8.924;2024-03-23T07:04:38;0.80;;;0.80;;
20078;SDS011;10199;48.850;8.924;2024-03-23T07:07:05;0.70;;;0.70;;
20078;SDS011;10199;48.850;8.924;2024-03-23T07:09:32;1.40;;;1.30;;
20078;SDS011;10199;48.850;8.924;2024-03-23T07:11:59;1.63;;;1.47;;
20078;SDS011;10199;48.850;8.924;2024-03-23T07:14:25;1.30;;;1.20;;
20078;SDS011;10199;48.850;8.924;2024-03-23T07:16:53;1.43;;;0.80;;
20078;SDS011;10199;48.850;8.924;2024-03-23T07:19:20;0.73;;;0.67;;
20078;SDS011;10199;48.850;8.924;2024-03-23T07:21:47;0.90;;;0.90;;
20078;SDS011;10199;48.850;8.924;2024-03-23T07:24:15;1.87;;;0.80;;
20078;SDS011;10199;48.850;8.924;2024-03-23T07:26:42;1.10;;;0.90;;
20078;SDS011;10199;48.850;8.924;2024-03-23T07:29:09;0.80;;;0.80;;
20078;SDS011;10199;48.850;8.924;2024-03-23T07:31:39;0.93;;;0.90;;
20078;SDS011;10199;48.850;8.924;2024-03-23T07:34:09;1.03;;;0.47;;
20078;SDS011;10199;48.850;8.924;2024-03-23T07:36:39;0.50;;;0.50;;
20078;SDS011;10199;48.850;8.924;2024-03-23T07:39:05;1.23;;;0.50;;
20078;SDS011;10199;48.850;8.924;2024-03-23T07:41:33;0.40;;;0.40;;
20078;SDS011;10199;48.850;8.924;2024-03-23T07:44:01;1.87;;;0.60;;
20078;SDS011;10199;48.850;8.924;2024-03-23T07:46:30;0.60;;;0.60;;
20078;SDS011;10199;48.850;8.924;2024-03-23T07:48:56;0.57;;;0.57;;
20078;SDS011;10199;48.850;8.924;2024-03-23T07:51:24;0.80;;;0.70;;
20078;SDS011;10199;48.850;8.924;2024-03-23T07:53:51;0.60;;;0.60;;
20078;SDS011;10199;48.850;8.924;2024-03-23T07:56:19;1.37;;;1.20;;
20078;SDS011;10199;48.850;8.924;2024-03-23T07:58:45;1.30;;;1.10;;
20078;SDS011;10199;48.850;8.924;2024-03-23T08:01:15;0.70;;;0.70;;
20078;SDS011;10199;48.850;8.924;2024-03-23T08:03:46;0.80;;;0.80;;
20078;SDS011;10199;48.850;8.924;2024-03-23T08:06:15;0.93;;;0.87;;
20078;SDS011;10199;48.850;8.924;2024-03-23T08:08:51;1.57;;;1.10;;
20078;SDS011;10199;48.850;8.924;2024-03-23T08:11:25;2.10;;;1.23;;
20078;SDS011;10199;48.850;8.924;2024-03-23T08:13:51;1.10;;;1.00;;
20078;SDS011;10199;48.850;8.924;2024-03-23T08:16:20;2.07;;;1.87;;
20078;SDS011;10199;48.850;8.924;2024-03-23T08:18:46;2.33;;;1.53;;
20078;SDS011;10199;48.850;8.924;2024-03-23T08:21:14;0.60;;;0.60;;
20078;SDS011;10199;48.850;8.924;2024-03-23T08:23:40;1.43;;;1.20;;
20078;SDS011;10199;48.850;8.924;2024-03-23T08:26:09;0.80;;;0.80;;
20078;SDS011;10199;48.850;8.924;2024-03-23T08:28:41;0.80;;;0.73;;
20078;SDS011;10199;48.850;8.924;2024-03-23T08:31:09;1.37;;;1.10;;
20078;SDS011;10199;48.850;8.924;2024-03-23T08:33:36;1.37;;;1.27;;
20078;SDS011;10199;48.850;8.924;2024-03-23T08:36:05;1.40;;;1.30;;
20078;SDS011;10199;48.850;8.924;2024-03-23T08:38:32;3.10;;;1.37;;
20078;SDS011;10199;48.850;8.924;2024-03-23T08:41:00;2.17;;;1.30;;
20078;SDS011;10199;48.850;8.924;2024-03-23T08:43:30;1.77;;;1.20;;
20078;SDS011;10199;48.850;8.924;2024-03-23T08:46:03;1.67;;;1.37;;
20078;SDS011;10199;48.850;8.924;2024-03-23T08:48:30;1.63;;;1.30;;
20078;SDS011;10199;48.850;8.924;2024-03-23T08:50:59;2.40;;;1.10;;
20078;SDS011;10199;48.850;8.924;2024-03-23T08:53:27;1.87;;;1.63;;
20078;SDS011;10199;48.850;8.924;2024-03-23T08:55:55;1.73;;;1.33;;
20078;SDS011;10199;48.850;8.924;2024-03-23T08:58:23;2.20;;;1.30;;
20078;SDS011;10199;48.850;8.924;2024-03-23T09:00:52;2.83;;;1.50;;
20078;SDS011;10199;48.850;8.924;2024-03-23T09:03:22;2.20;;;1.70;;
20078;SDS011;10199;48.850;8.924;2024-03-23T09:05:49;4.47;;;2.30;;
20078;SDS011;10199;48.850;8.924;2024-03-23T09:08:18;3.70;;;2.20;;
20078;SDS011;10199;48.850;8.924;2024-03-23T09:10:45;4.97;;;2.30;;
20078;SDS011;10199;48.850;8.924;2024-03-23T09:13:12;5.47;;;2.47;;
20078;SDS011;10199;48.850;8.924;2024-03-23T09:15:45;9.77;;;4.70;;
20078;SDS011;10199;48.850;8.924;2024-03-23T09:18:13;4.80;;;2.90;;
20078;SDS011;10199;48.850;8.924;2024-03-23T09:20:40;5.20;;;2.90;;
20078;SDS011;10199;48.850;8.924;2024-03-23T09:23:07;4.47;;;2.97;;
20078;SDS011;10199;48.850;8.924;2024-03-23T09:25:36;5.23;;;3.00;;
20078;SDS011;10199;48.850;8.924;2024-03-23T09:28:02;7.27;;;3.87;;
20078;SDS011;10199;48.850;8.924;2024-03-23T09:30:29;4.97;;;2.53;;
20078;SDS011;10199;48.850;8.924;2024-03-23T09:32:55;5.63;;;3.33;;
20078;SDS011;10199;48.850;8.924;2024-03-23T09:35:24;5.20;;;2.73;;
20078;SDS011;10199;48.850;8.924;2024-03-23T09:37:50;9.13;;;5.10;;
20078;SDS011;10199;48.850;8.924;2024-03-23T09:40:17;12.87;;;6.80;;
20078;SDS011;10199;48.850;8.924;2024-03-23T09:42:43;10.50;;;5.17;;
20078;SDS011;10199;48.850;8.924;2024-03-23T09:45:17;14.37;;;6.90;;
20078;SDS011;10199;48.850;8.924;2024-03-23T09:47:46;12.50;;;6.53;;
20078;SDS011;10199;48.850;8.924;2024-03-23T09:50:14;10.30;;;5.70;;
20078;SDS011;10199;48.850;8.924;2024-03-23T09:52:41;7.77;;;4.47;;
20078;SDS011;10199;48.850;8.924;2024-03-23T09:55:09;6.20;;;4.17;;
20078;SDS011;10199;48.850;8.924;2024-03-23T09:57:35;10.37;;;5.37;;
20078;SDS011;10199;48.850;8.924;2024-03-23T10:00:02;8.67;;;5.60;;
20078;SDS011;10199;48.850;8.924;2024-03-23T10:02:32;7.70;;;3.77;;
20078;SDS011;10199;48.850;8.924;2024-03-23T10:05:00;7.60;;;3.33;;
20078;SDS011;10199;48.850;8.924;2024-03-23T10:07:26;7.40;;;4.53;;
20078;SDS011;10199;48.850;8.924;2024-03-23T10:09:55;5.10;;;2.90;;
20078;SDS011;10199;48.850;8.924;2024-03-23T10:12:22;6.50;;;3.87;;
20078;SDS011;10199;48.850;8.924;2024-03-23T10:14:50;5.67;;;3.40;;
20078;SDS011;10199;48.850;8.924;2024-03-23T10:17:17;5.33;;;3.53;;
20078;SDS011;10199;48.850;8.924;2024-03-23T10:19:45;5.53;;;3.10;;
20078;SDS011;10199;48.850;8.924;2024-03-23T10:22:13;4.83;;;3.50;;
20078;SDS011;10199;48.850;8.924;2024-03-23T10:24:41;5.73;;;3.47;;
20078;SDS011;10199;48.850;8.924;2024-03-23T10:27:09;4.60;;;3.10;;
20078;SDS011;10199;48.850;8.924;2024-03-23T10:29:36;7.13;;;2.63;;
20078;SDS011;10199;48.850;8.924;2024-03-23T10:32:09;7.70;;;2.90;;
20078;SDS011;10199;48.850;8.924;2024-03-23T10:34:36;3.60;;;2.37;;
20078;SDS011;10199;48.850;8.924;2024-03-23T10:37:03;5.43;;;3.00;;
20078;SDS011;10199;48.850;8.924;2024-03-23T10:39:32;5.93;;;3.43;;
20078;SDS011;10199;48.850;8.924;2024-03-23T10:42:00;5.27;;;3.00;;
20078;SDS011;10199;48.850;8.924;2024-03-23T10:44:30;6.20;;;3.33;;
20078;SDS011;10199;48.850;8.924;2024-03-23T10:46:57;4.60;;;2.97;;
20078;SDS011;10199;48.850;8.924;2024-03-23T10:49:29;3.43;;;2.30;;
20078;SDS011;10199;48.850;8.924;2024-03-23T10:51:59;5.20;;;3.30;;
20078;SDS011;10199;48.850;8.924;2024-03-23T10:54:27;4.77;;;3.37;;
20078;SDS011;10199;48.850;8.924;2024-03-23T10:56:56;4.03;;;3.00;;
20078;SDS011;10199;48.850;8.924;2024-03-23T10:59:26;4.40;;;2.33;;
20078;SDS011;10199;48.850;8.924;2024-03-23T11:01:55;3.37;;;2.33;;
20078;SDS011;10199;48.850;8.924;2024-03-23T11:04:29;4.77;;;2.80;;
20078;SDS011;10199;48.850;8.924;2024-03-23T11:06:56;2.90;;;2.60;;
20078;SDS011;10199;48.850;8.924;2024-03-23T11:09:40;4.73;;;2.97;;
20078;SDS011;10199;48.850;8.924;2024-03-23T11:12:26;4.60;;;2.87;;
20078;SDS011;10199;48.850;8.924;2024-03-23T11:14:57;3.93;;;3.10;;
20078;SDS011;10199;48.850;8.924;2024-03-23T11:17:30;4.27;;;2.77;;
20078;SDS011;10199;48.850;8.924;2024-03-23T11:19:58;4.50;;;2.43;;
20078;SDS011;10199;48.850;8.924;2024-03-23T11:22:37;2.13;;;1.63;;
20078;SDS011;10199;48.850;8.924;2024-03-23T11:25:12;2.40;;;1.90;;
20078;SDS011;10199;48.850;8.924;2024-03-23T11:27:42;3.93;;;1.97;;
20078;SDS011;10199;48.850;8.924;2024-03-23T11:30:13;1.77;;;1.60;;
20078;SDS011;10199;48.850;8.924;2024-03-23T11:32:43;2.20;;;1.43;;
20078;SDS011;10199;48.850;8.924;2024-03-23T11:35:11;3.83;;;1.90;;
20078;SDS011;10199;48.850;8.924;2024-03-23T11:38:00;2.87;;;1.40;;
20078;SDS011;10199;48.850;8.924;2024-03-23T11:40:31;2.80;;;1.33;;
20078;SDS011;10199;48.850;8.924;2024-03-23T11:42:58;3.77;;;1.10;;
20078;SDS011;10199;48.850;8.924;2024-03-23T11:45:25;4.50;;;1.50;;
20078;SDS011;10199;48.850;8.924;2024-03-23T11:48:06;4.43;;;1.30;;
20078;SDS011;10199;48.850;8.924;2024-03-23T11:50:36;3.23;;;1.17;;
20078;SDS011;10199;48.850;8.924;2024-03-23T11:53:12;2.80;;;1.13;;
20078;SDS011;10199;48.850;8.924;2024-03-23T11:55:45;3.80;;;1.17;;
20078;SDS011;10199;48.850;8.924;2024-03-23T11:58:12;3.73;;;1.47;;
20078;SDS011;10199;48.850;8.924;2024-03-23T12:00:40;5.90;;;1.57;;
20078;SDS011;10199;48.850;8.924;2024-03-23T12:03:11;1.77;;;1.33;;
20078;SDS011;10199;48.850;8.924;2024-03-23T12:05:38;5.17;;;1.73;;
20078;SDS011;10199;48.850;8.924;2024-03-23T12:08:17;5.60;;;1.50;;
20078;SDS011;10199;48.850;8.924;2024-03-23T12:10:47;3.63;;;1.63;;
20078;SDS011;10199;48.850;8.924;2024-03-23T12:13:16;4.23;;;1.70;;
20078;SDS011;10199;48.850;8.924;2024-03-23T12:15:44;5.53;;;2.00;;
20078;SDS011;10199;48.850;8.924;2024-03-23T12:18:13;3.93;;;1.30;;
20078;SDS011;10199;48.850;8.924;2024-03-23T12:20:40;4.63;;;2.07;;
20078;SDS011;10199;48.850;8.924;2024-03-23T12:23:10;5.03;;;1.67;;
20078;SDS011;10199;48.850;8.924;2024-03-23T12:25:41;7.73;;;1.93;;
20078;SDS011;10199;48.850;8.924;2024-03-23T12:28:08;3.80;;;1.70;;
20078;SDS011;10199;48.850;8.924;2024-03-23T12:30:35;6.47;;;1.80;;
20078;SDS011;10199;48.850;8.924;2024-03-23T12:33:04;3.97;;;1.80;;
20078;SDS011;10199;48.850;8.924;2024-03-23T12:35:33;5.17;;;2.17;;
20078;SDS011;10199;48.850;8.924;2024-03-23T12:38:00;4.87;;;2.00;;
20078;SDS011;10199;48.850;8.924;2024-03-23T12:40:27;7.73;;;2.03;;
20078;SDS011;10199;48.850;8.924;2024-03-23T12:42:54;4.23;;;1.70;;
20078;SDS011;10199;48.850;8.924;2024-03-23T12:45:21;5.10;;;2.30;;
20078;SDS011;10199;48.850;8.924;2024-03-23T12:47:48;4.17;;;1.60;;
20078;SDS011;10199;48.850;8.924;2024-03-23T12:50:15;3.90;;;1.93;;
20078;SDS011;10199;48.850;8.924;2024-03-23T12:52:43;4.83;;;1.57;;
20078;SDS011;10199;48.850;8.924;2024-03-23T12:55:10;4.60;;;2.00;;
20078;SDS011;10199;48.850;8.924;2024-03-23T12:57:36;6.43;;;2.37;;
20078;SDS011;10199;48.850;8.924;2024-03-23T13:00:04;4.43;;;2.13;;
20078;SDS011;10199;48.850;8.924;2024-03-23T13:02:32;7.57;;;2.13;;
20078;SDS011;10199;48.850;8.924;2024-03-23T13:05:00;9.03;;;1.43;;
20078;SDS011;10199;48.850;8.924;2024-03-23T13:07:26;4.17;;;1.23;;
20078;SDS011;10199;48.850;8.924;2024-03-23T13:09:55;4.30;;;1.60;;
20078;SDS011;10199;48.850;8.924;2024-03-23T13:12:22;6.87;;;1.90;;
20078;SDS011;10199;48.850;8.924;2024-03-23T13:14:49;4.53;;;1.83;;
20078;SDS011;10199;48.850;8.924;2024-03-23T13:17:15;3.97;;;1.50;;
20078;SDS011;10199;48.850;8.924;2024-03-23T13:19:42;3.67;;;1.43;;
20078;SDS011;10199;48.850;8.924;2024-03-23T13:22:08;3.17;;;1.50;;
20078;SDS011;10199;48.850;8.924;2024-03-23T13:24:37;3.97;;;1.13;;
20078;SDS011;10199;48.850;8.924;2024-03-23T13:27:05;5.03;;;1.67;;
20078;SDS011;10199;48.850;8.924;2024-03-23T13:29:33;3.70;;;1.53;;
20078;SDS011;10199;48.850;8.924;2024-03-23T13:32:00;3.57;;;1.70;;
20078;SDS011;10199;48.850;8.924;2024-03-23T13:34:27;2.83;;;1.50;;
20078;SDS011;10199;48.850;8.924;2024-03-23T13:36:55;3.67;;;1.30;;
20078;SDS011;10199;48.850;8.924;2024-03-23T13:39:24;5.10;;;2.17;;
20078;SDS011;10199;48.850;8.924;2024-03-23T13:41:54;3.37;;;1.20;;
20078;SDS011;10199;48.850;8.924;2024-03-23T13:44:24;5.37;;;1.20;;
20078;SDS011;10199;48.850;8.924;2024-03-23T13:46:53;3.60;;;1.40;;
20078;SDS011;10199;48.850;8.924;2024-03-23T13:49:25;2.33;;;1.10;;
20078;SDS011;10199;48.850;8.924;2024-03-23T13:51:54;2.77;;;1.40;;
20078;SDS011;10199;48.850;8.924;2024-03-23T13:54:23;4.60;;;1.90;;
20078;SDS011;10199;48.850;8.924;2024-03-23T13:56:50;2.27;;;0.90;;
20078;SDS011;10199;48.850;8.924;2024-03-23T13:59:18;3.37;;;1.33;;
20078;SDS011;10199;48.850;8.924;2024-03-23T14:01:46;4.17;;;1.50;;
20078;SDS011;10199;48.850;8.924;2024-03-23T14:04:15;4.40;;;1.80;;
20078;SDS011;10199;48.850;8.924;2024-03-23T14:06:42;3.70;;;2.00;;
20078;SDS011;10199;48.850;8.924;2024-03-23T14:09:10;2.40;;;1.57;;
20078;SDS011;10199;48.850;8.924;2024-03-23T14:11:37;3.50;;;1.50;;
20078;SDS011;10199;48.850;8.924;2024-03-23T14:14:04;3.63;;;1.50;;
20078;SDS011;10199;48.850;8.924;2024-03-23T14:16:30;2.87;;;1.80;;
20078;SDS011;10199;48.850;8.924;2024-03-23T14:18:59;3.07;;;1.40;;
20078;SDS011;10199;48.850;8.924;2024-03-23T14:21:25;4.83;;;1.90;;
20078;SDS011;10199;48.850;8.924;2024-03-23T14:23:52;3.43;;;1.27;;
20078;SDS011;10199;48.850;8.924;2024-03-23T14:26:19;8.57;;;1.93;;
20078;SDS011;10199;48.850;8.924;2024-03-23T14:28:46;3.93;;;1.80;;
20078;SDS011;10199;48.850;8.924;2024-03-23T14:31:12;3.20;;;1.10;;
20078;SDS011;10199;48.850;8.924;2024-03-23T14:33:39;2.50;;;1.40;;
20078;SDS011;10199;48.850;8.924;2024-03-23T14:36:13;3.70;;;1.30;;
20078;SDS011;10199;48.850;8.924;2024-03-23T14:38:40;1.93;;;0.83;;
20078;SDS011;10199;48.850;8.924;2024-03-23T14:41:06;3.33;;;1.20;;
20078;SDS011;10199;48.850;8.924;2024-03-23T14:43:34;3.27;;;1.70;;
20078;SDS011;10199;48.850;8.924;2024-03-23T14:46:06;2.97;;;0.90;;
20078;SDS011;10199;48.850;8.924;2024-03-23T14:48:34;3.80;;;1.70;;
20078;SDS011;10199;48.850;8.924;2024-03-23T14:51:02;2.23;;;0.97;;
20078;SDS011;10199;48.850;8.924;2024-03-23T14:53:33;2.87;;;1.80;;
20078;SDS011;10199;48.850;8.924;2024-03-23T14:56:00;2.50;;;1.77;;
20078;SDS011;10199;48.850;8.924;2024-03-23T14:58:28;2.73;;;1.20;;
20078;SDS011;10199;48.850;8.924;2024-03-23T15:00:59;3.37;;;1.23;;
20078;SDS011;10199;48.850;8.924;2024-03-23T15:03:26;2.17;;;1.00;;
20078;SDS011;10199;48.850;8.924;2024-03-23T15:05:53;2.03;;;1.10;;
20078;SDS011;10199;48.850;8.924;2024-03-23T15:08:21;2.63;;;0.97;;
20078;SDS011;10199;48.850;8.924;2024-03-23T15:10:49;4.00;;;1.70;;
20078;SDS011;10199;48.850;8.924;2024-03-23T15:13:16;2.17;;;1.33;;
20078;SDS011;10199;48.850;8.924;2024-03-23T15:15:45;2.77;;;1.20;;
20078;SDS011;10199;48.850;8.924;2024-03-23T15:18:14;2.07;;;1.20;;
20078;SDS011;10199;48.850;8.924;2024-03-23T15:20:41;2.77;;;1.53;;
20078;SDS011;10199;48.850;8.924;2024-03-23T15:23:08;5.47;;;2.37;;
20078;SDS011;10199;48.850;8.924;2024-03-23T15:25:35;4.00;;;1.30;;
20078;SDS011;10199;48.850;8.924;2024-03-23T15:28:03;1.77;;;1.20;;
20078;SDS011;10199;48.850;8.924;2024-03-23T15:30:30;2.57;;;1.10;;
20078;SDS011;10199;48.850;8.924;2024-03-23T15:32:57;3.90;;;1.10;;
20078;SDS011;10199;48.850;8.924;2024-03-23T15:35:23;1.87;;;1.30;;
20078;SDS011;10199;48.850;8.924;2024-03-23T15:37:50;2.00;;;1.03;;
20078;SDS011;10199;48.850;8.924;2024-03-23T15:40:16;1.87;;;1.10;;
20078;SDS011;10199;48.850;8.924;2024-03-23T15:42:44;1.33;;;0.90;;